Time;durP1;ratioP1;P1;durP2;ratioP2;P2;SDS_P1;SDS_P2;PMS_P1;PMS_P2;Temp;Humidity;BMP_temperature;BMP_pressure;BME280_temperature;BME280_humidity;BME280_pressure;Samples;Min_cycle;Max_cycle;Signal;HPM_P1;HPM_P2
2022/08/30 00:03:59;;;;;;;5.4;9;;;;;;;12.6;100;98950;;;;
2022/08/30 00:14:59;;;;;;;5.4;9;;;;;;;12.6;100;98940;;;;
2022/08/30 00:24:59;;;;;;;5.4;9;;;;;;;12.5;100;98940;;;;
2022/08/30 00:35:59;;;;;;;5.6;9.5;;;;;;;12.7;100;98950;;;;
2022/08/30 00:46:59;;;;;;;5.6;9.5;;;;;;;12.6;100;98950;;;;
2022/08/30 00:57:59;;;;;;;6;10;;;;;;;12.4;100;98950;;;;
2022/08/30 01:08:59;;;;;;;6;10;;;;;;;12.4;100;98940;;;;
2022/08/30 01:18:59;;;;;;;6;10;;;;;;;12.3;100;98940;;;;
2022/08/30 01:28:59;;;;;;;5.4;9.1;;;;;;;12.2;100;98930;;;;
2022/08/30 01:38:59;;;;;;;5.4;9.1;;;;;;;12.1;100;98930;;;;
2022/08/30 01:50:00;;;;;;;5.4;9.1;;;;;;;12;100;98930;;;;
2022/08/30 02:01:00;;;;;;;5.9;10.2;;;;;;;11.9;100;98930;;;;
2022/08/30 02:11:00;;;;;;;5.9;10.2;;;;;;;11.8;100;98930;;;;
2022/08/30 02:22:00;;;;;;;5.9;10.2;;;;;;;11.8;100;98920;;;;
2022/08/30 02:32:59;;;;;;;4.7;7;;;;;;;11.7;100;98930;;;;
2022/08/30 02:42:59;;;;;;;4.7;7;;;;;;;11.6;100;98920;;;;
2022/08/30 02:52:59;;;;;;;4.7;7;;;;;;;11.6;100;98910;;;;
2022/08/30 03:03:02;;;;;;;5.3;8.7;;;;;;;11.5;100;98910;;;;
2022/08/30 03:12:59;;;;;;;5.3;8.7;;;;;;;11.4;100;98920;;;;
2022/08/30 03:23:00;;;;;;;5.3;8.7;;;;;;;11.3;100;98920;;;;
2022/08/30 03:34:00;;;;;;;5.3;8.8;;;;;;;11.1;100;98930;;;;
2022/08/30 03:43:59;;;;;;;5.3;8.8;;;;;;;11.1;100;98930;;;;
2022/08/30 03:55:00;;;;;;;5.3;8.8;;;;;;;11.1;100;98940;;;;
2022/08/30 04:04:59;;;;;;;5.6;8.2;;;;;;;11.2;100;98960;;;;
2022/08/30 04:14:59;;;;;;;5.6;8.2;;;;;;;11.1;100;98960;;;;
2022/08/30 04:26:00;;;;;;;5.6;8.2;;;;;;;11.1;100;98970;;;;
2022/08/30 04:37:00;;;;;;;5.4;7.3;;;;;;;11.3;100;98970;;;;
2022/08/30 04:47:01;;;;;;;5.4;7.3;;;;;;;11.5;100;98980;;;;
2022/08/30 04:58:00;;;;;;;5.5;11;;;;;;;12.1;100;98990;;;;
2022/08/30 05:09:00;;;;;;;5.5;11;;;;;;;12.6;100;98990;;;;
2022/08/30 05:20:00;;;;;;;5.5;11;;;;;;;13.1;100;99000;;;;
2022/08/30 05:30:00;;;;;;;5.8;9.4;;;;;;;13.6;100;99010;;;;
2022/08/30 05:41:00;;;;;;;5.8;9.4;;;;;;;14;100;99010;;;;
2022/08/30 05:51:00;;;;;;;5.8;9.4;;;;;;;14.4;100;99010;;;;
2022/08/30 06:02:00;;;;;;;6.4;10.6;;;;;;;14.6;100;99020;;;;
2022/08/30 06:13:00;;;;;;;6.4;10.6;;;;;;;15.3;100;99020;;;;
2022/08/30 06:23:00;;;;;;;6.4;10.6;;;;;;;15.6;100;99030;;;;
2022/08/30 06:33:00;;;;;;;7.1;11.8;;;;;;;16.3;100;99020;;;;
2022/08/30 06:43:00;;;;;;;7.1;11.8;;;;;;;16.8;100;99030;;;;
2022/08/30 06:54:00;;;;;;;7.1;11.8;;;;;;;17;100;99040;;;;
2022/08/30 07:05:01;;;;;;;5.4;10.8;;;;;;;17.6;100;99040;;;;
2022/08/30 07:16:00;;;;;;;5.4;10.8;;;;;;;17.7;100;99040;;;;
2022/08/30 07:27:00;;;;;;;5.4;10.8;;;;;;;18.2;100;99050;;;;
2022/08/30 07:37:00;;;;;;;5.5;12.3;;;;;;;18.5;100;99050;;;;
2022/08/30 07:48:00;;;;;;;5.5;12.3;;;;;;;19.5;100;99050;;;;
2022/08/30 07:59:00;;;;;;;7.6;12.2;;;;;;;20.1;100;99050;;;;
2022/08/30 08:09:01;;;;;;;7.6;12.2;;;;;;;20.4;100;99060;;;;
2022/08/30 08:20:00;;;;;;;7.6;12.2;;;;;;;20.5;100;99060;;;;
2022/08/30 08:30:00;;;;;;;7.1;16.3;;;;;;;20.5;100;99060;;;;
2022/08/30 08:41:00;;;;;;;7.1;16.3;;;;;;;20.4;100;99070;;;;
2022/08/30 09:02:01;;;;;;;4.8;8.7;;;;;;;21;100;99070;;;;
2022/08/30 09:12:00;;;;;;;4.8;8.7;;;;;;;21.5;100;99070;;;;
2022/08/30 09:23:00;;;;;;;4.8;8.7;;;;;;;21.7;100;99060;;;;
2022/08/30 09:33:00;;;;;;;5.1;10.3;;;;;;;21.5;100;99060;;;;
2022/08/30 09:43:00;;;;;;;5.1;10.3;;;;;;;22.3;100;99060;;;;
2022/08/30 09:54:00;;;;;;;5.1;10.3;;;;;;;23.5;100;99060;;;;
2022/08/30 10:04:00;;;;;;;4.8;9.2;;;;;;;23.8;100;99050;;;;
2022/08/30 10:14:00;;;;;;;4.8;9.2;;;;;;;23.4;100;99050;;;;
2022/08/30 10:25:00;;;;;;;4.8;9.2;;;;;;;23.3;100;99040;;;;
2022/08/30 10:35:00;;;;;;;4;8.1;;;;;;;22.8;100;99030;;;;
2022/08/30 10:46:00;;;;;;;4;8.1;;;;;;;22.6;100;99030;;;;
2022/08/30 10:56:00;;;;;;;4;8.1;;;;;;;23;100;99010;;;;
2022/08/30 11:06:00;;;;;;;3.6;6.9;;;;;;;23.5;100;99010;;;;
2022/08/30 11:17:00;;;;;;;3.6;6.9;;;;;;;23.1;100;99010;;;;
2022/08/30 11:28:00;;;;;;;3.5;8.7;;;;;;;22.6;100;99010;;;;
2022/08/30 11:39:00;;;;;;;3.5;8.7;;;;;;;22.8;100;99000;;;;
2022/08/30 11:49:00;;;;;;;3.5;8.7;;;;;;;23.1;100;98990;;;;
2022/08/30 11:59:00;;;;;;;3;5.7;;;;;;;23.7;100;98980;;;;
2022/08/30 12:09:00;;;;;;;3;5.7;;;;;;;24.4;97.7;98970;;;;
2022/08/30 12:20:00;;;;;;;3;5.7;;;;;;;24.6;97.8;98950;;;;
2022/08/30 12:30:00;;;;;;;3.5;5.9;;;;;;;24.6;91.6;98950;;;;
2022/08/30 12:41:00;;;;;;;3.5;5.9;;;;;;;24;95.1;98950;;;;
2022/08/30 12:51:00;;;;;;;3.5;5.9;;;;;;;24.3;99.2;98920;;;;
2022/08/30 13:01:00;;;;;;;3.5;7.6;;;;;;;24.7;98.7;98920;;;;
2022/08/30 13:12:00;;;;;;;3.5;7.6;;;;;;;24.4;100;98920;;;;
2022/08/30 13:22:00;;;;;;;3.5;7.6;;;;;;;24;100;98920;;;;
2022/08/30 13:33:00;;;;;;;3.3;6.5;;;;;;;24;99.2;98910;;;;
2022/08/30 13:43:00;;;;;;;3.3;6.5;;;;;;;24.7;99.6;98900;;;;
2022/08/30 13:54:00;;;;;;;3.3;6.5;;;;;;;24.6;95.8;98900;;;;
2022/08/30 14:04:00;;;;;;;2.9;5.8;;;;;;;24.7;93;98890;;;;
2022/08/30 14:14:00;;;;;;;2.9;5.8;;;;;;;24.8;93.5;98890;;;;
2022/08/30 14:25:00;;;;;;;2.9;5.8;;;;;;;25.1;94.3;98880;;;;
2022/08/30 14:35:00;;;;;;;2.8;7.1;;;;;;;25.4;94.1;98870;;;;
2022/08/30 14:46:00;;;;;;;2.8;7.1;;;;;;;26;91.6;98870;;;;
2022/08/30 14:56:00;;;;;;;2.8;7.1;;;;;;;25.6;91.9;98860;;;;
2022/08/30 15:07:00;;;;;;;3;5.6;;;;;;;27.7;86.3;98870;;;;
2022/08/30 15:17:01;;;;;;;3;5.6;;;;;;;30.3;69.1;98870;;;;
2022/08/30 15:28:00;;;;;;;3;5.6;;;;;;;27.6;76.4;98860;;;;
2022/08/30 15:39:00;;;;;;;3.3;5.4;;;;;;;25.7;85.2;98850;;;;
2022/08/30 15:49:00;;;;;;;3.3;5.4;;;;;;;27.6;85;98850;;;;
2022/08/30 16:00:00;;;;;;;2.9;6;;;;;;;29.9;67.5;98850;;;;
2022/08/30 16:11:00;;;;;;;2.9;6;;;;;;;28.5;71.3;98840;;;;
2022/08/30 16:22:00;;;;;;;2.9;6;;;;;;;26.3;79.1;98830;;;;
2022/08/30 16:33:00;;;;;;;14.9;25.4;;;;;;;24.6;86.8;98820;;;;
2022/08/30 16:44:00;;;;;;;14.9;25.4;;;;;;;23.7;98.5;98810;;;;
2022/08/30 16:55:00;;;;;;;14.9;25.4;;;;;;;23;100;98820;;;;
2022/08/30 17:06:00;;;;;;;24.9;35.7;;;;;;;22.3;100;98830;;;;
2022/08/30 17:17:00;;;;;;;24.9;35.7;;;;;;;21.9;100;98850;;;;
2022/08/30 17:28:00;;;;;;;24.9;35.7;;;;;;;21.7;100;98850;;;;
2022/08/30 17:38:00;;;;;;;21.5;29.1;;;;;;;21.3;100;98860;;;;
2022/08/30 17:48:00;;;;;;;21.5;29.1;;;;;;;20.8;100;98870;;;;
2022/08/30 17:59:00;;;;;;;2.6;4.8;;;;;;;20.3;100;98890;;;;
2022/08/30 18:10:00;;;;;;;2.6;4.8;;;;;;;19.8;100;98900;;;;
2022/08/30 18:20:00;;;;;;;2.6;4.8;;;;;;;19.5;100;98910;;;;
2022/08/30 18:30:00;;;;;;;4.1;7;;;;;;;19.4;100;98920;;;;
2022/08/30 18:41:00;;;;;;;4.1;7;;;;;;;19.1;100;98920;;;;
2022/08/30 18:51:00;;;;;;;4.1;7;;;;;;;18.9;100;98930;;;;
2022/08/30 19:01:00;;;;;;;15.5;21.5;;;;;;;18.8;100;98940;;;;
2022/08/30 19:11:00;;;;;;;15.5;21.5;;;;;;;18.6;100;98930;;;;
2022/08/30 19:22:00;;;;;;;15.5;21.5;;;;;;;18.4;100;98930;;;;
2022/08/30 19:32:00;;;;;;;4.7;9.4;;;;;;;18.1;100;98930;;;;
2022/08/30 19:43:00;;;;;;;4.7;9.4;;;;;;;17.8;100;98930;;;;
2022/08/30 19:53:00;;;;;;;4.7;9.4;;;;;;;17.2;100;98930;;;;
2022/08/30 20:03:00;;;;;;;3.6;7.3;;;;;;;17;100;98930;;;;
2022/08/30 20:13:00;;;;;;;3.6;7.3;;;;;;;16.9;100;98930;;;;
2022/08/30 20:24:00;;;;;;;3.6;7.3;;;;;;;16.6;100;98930;;;;
2022/08/30 20:34:00;;;;;;;3.6;7.7;;;;;;;16.4;100;98930;;;;
2022/08/30 20:44:00;;;;;;;3.6;7.7;;;;;;;16.2;100;98930;;;;
2022/08/30 20:55:00;;;;;;;3.6;7.7;;;;;;;16;100;98930;;;;
2022/08/30 21:06:00;;;;;;;4.3;8.1;;;;;;;15.9;100;98930;;;;
2022/08/30 21:16:00;;;;;;;4.3;8.1;;;;;;;15.8;100;98940;;;;
2022/08/30 21:27:00;;;;;;;4.3;8.1;;;;;;;15.6;100;98940;;;;
2022/08/30 21:37:00;;;;;;;4.4;7.5;;;;;;;15.6;100;98940;;;;
2022/08/30 21:47:00;;;;;;;4.4;7.5;;;;;;;15.4;100;98940;;;;
2022/08/30 21:57:00;;;;;;;4.4;7.5;;;;;;;15.2;100;98950;;;;
2022/08/30 22:07:02;;;;;;;4;7.7;;;;;;;15.1;100;98940;;;;
2022/08/30 22:18:00;;;;;;;4;7.7;;;;;;;15.1;100;98940;;;;
2022/08/30 22:29:00;;;;;;;4.6;7.9;;;;;;;15;100;98930;;;;
2022/08/30 22:39:00;;;;;;;4.6;7.9;;;;;;;14.9;100;98930;;;;
2022/08/30 22:49:01;;;;;;;4.6;7.9;;;;;;;14.7;100;98930;;;;
2022/08/30 22:59:00;;;;;;;4.9;9;;;;;;;14.6;100;98920;;;;
2022/08/30 23:10:00;;;;;;;4.9;9;;;;;;;14.5;100;98940;;;;
2022/08/30 23:21:00;;;;;;;4.9;9;;;;;;;14.5;100;98930;;;;
